Time;durP1;ratioP1;P1;durP2;ratioP2;P2;SDS_P1;SDS_P2;PMS_P1;PMS_P2;Temp;Humidity;BMP_temperature;BMP_pressure;BME280_temperature;BME280_humidity;BME280_pressure;Samples;Min_cycle;Max_cycle;Signal;HPM_P1;HPM_P2
2022/01/05 00:01:22;;;;;;;23.92;16.37;;;;;;;3.15;84.41;100135.27;1752262;82;21046;-78
2022/01/05 00:03:49;;;;;;;16.65;12.65;;;;;;;3.15;84.38;100127.49;1752660;82;20865;-77
2022/01/05 00:06:19;;;;;;;20.10;10.75;;;;;;;3.16;84.37;100131.33;1752588;82;21784;-78
2022/01/05 00:08:45;;;;;;;14.35;10.08;;;;;;;3.18;84.66;100119.59;1752241;82;21098;-78
2022/01/05 00:11:12;;;;;;;15.08;9.95;;;;;;;3.22;85.16;100115.98;1752256;82;20940;-81
2022/01/05 00:13:42;;;;;;;16.10;8.58;;;;;;;3.28;85.31;100114.47;1752436;82;21323;-78
2022/01/05 00:16:09;;;;;;;15.10;8.98;;;;;;;3.36;85.54;100104.66;1752433;82;21631;-78
2022/01/05 00:18:38;;;;;;;16.97;8.88;;;;;;;3.46;85.59;100107.73;1752179;82;21179;-78
2022/01/05 00:21:05;;;;;;;15.60;9.85;;;;;;;3.55;85.48;100106.07;1752172;82;21445;-78
2022/01/05 00:23:33;;;;;;;19.15;10.48;;;;;;;3.62;85.22;100102.33;1752275;82;21062;-77
2022/01/05 00:26:03;;;;;;;16.57;10.95;;;;;;;3.67;84.78;100096.53;1752585;82;20948;-78
2022/01/05 00:28:29;;;;;;;18.37;9.78;;;;;;;3.70;84.50;100091.20;1752028;82;20972;-78
2022/01/05 00:30:56;;;;;;;22.82;11.68;;;;;;;3.70;84.23;100085.19;1752178;82;21562;-78
2022/01/05 00:33:23;;;;;;;19.80;9.80;;;;;;;3.70;84.00;100094.26;1752441;82;21003;-78
2022/01/05 00:35:50;;;;;;;10.98;9.03;;;;;;;3.68;83.89;100091.72;1752366;82;21379;-78
2022/01/05 00:38:17;;;;;;;17.77;10.38;;;;;;;3.65;83.93;100091.85;1752411;82;20963;-77
2022/01/05 00:40:44;;;;;;;16.52;10.08;;;;;;;3.65;83.95;100087.13;1752103;82;20956;-81
2022/01/05 00:43:11;;;;;;;15.78;9.53;;;;;;;3.64;83.89;100083.66;1752520;82;21782;-80
2022/01/05 00:45:39;;;;;;;22.73;11.12;;;;;;;3.66;83.81;100088.80;1752091;82;20857;-80
2022/01/05 00:48:06;;;;;;;22.27;12.23;;;;;;;3.65;83.70;100092.31;1752568;82;21003;-79
2022/01/05 00:50:33;;;;;;;21.12;11.22;;;;;;;3.65;83.63;100085.38;1752290;82;21517;-78
2022/01/05 00:53:01;;;;;;;19.32;13.18;;;;;;;3.67;83.56;100088.75;1752471;82;20936;-81
2022/01/05 00:55:28;;;;;;;21.70;13.18;;;;;;;3.66;83.45;100080.56;1752382;82;21134;-80
2022/01/05 00:57:55;;;;;;;19.00;11.65;;;;;;;3.66;83.39;100073.24;1752553;82;20952;-79
2022/01/05 01:00:22;;;;;;;17.02;10.18;;;;;;;3.65;83.35;100074.16;1752218;82;21386;-79
2022/01/05 01:02:49;;;;;;;21.95;10.60;;;;;;;3.64;83.42;100074.59;1752615;82;20893;-79
2022/01/05 01:05:16;;;;;;;17.23;9.78;;;;;;;3.62;83.48;100077.70;1752246;82;20925;-78
2022/01/05 01:07:45;;;;;;;20.55;11.45;;;;;;;3.62;83.60;100072.97;1752191;82;21530;-81
2022/01/05 01:10:12;;;;;;;22.77;11.33;;;;;;;3.62;83.71;100069.92;1752475;82;20892;-77
2022/01/05 01:12:40;;;;;;;19.90;10.82;;;;;;;3.63;83.72;100072.92;1753678;82;21374;-79
2022/01/05 01:15:09;;;;;;;16.20;11.28;;;;;;;3.63;83.74;100066.44;1753022;82;20904;-78
2022/01/05 01:17:36;;;;;;;22.48;11.22;;;;;;;3.64;83.74;100059.49;1752523;82;20992;-79
2022/01/05 01:20:04;;;;;;;19.77;10.93;;;;;;;3.64;83.75;100056.91;1752128;82;21129;-80
2022/01/05 01:22:33;;;;;;;19.60;9.63;;;;;;;3.64;83.79;100053.84;1752341;82;21394;-78
2022/01/05 01:25:00;;;;;;;24.85;10.72;;;;;;;3.66;83.81;100056.39;1752599;82;21382;-76
2022/01/05 01:27:26;;;;;;;13.68;9.10;;;;;;;3.65;83.83;100048.23;1752583;82;20949;-79
2022/01/05 01:29:53;;;;;;;17.85;9.25;;;;;;;3.66;83.82;100056.39;1752314;82;21440;-78
2022/01/05 01:32:20;;;;;;;16.87;9.28;;;;;;;3.66;83.82;100046.86;1752519;82;21108;-78
2022/01/05 01:34:46;;;;;;;11.95;7.95;;;;;;;3.66;83.83;100045.55;1752250;82;21534;-77
2022/01/05 01:37:14;;;;;;;13.72;8.75;;;;;;;3.67;83.88;100049.02;1752210;82;20967;-77
2022/01/05 01:39:41;;;;;;;14.68;8.40;;;;;;;3.67;83.94;100048.56;1752047;82;20992;-78
2022/01/05 01:42:08;;;;;;;10.90;6.92;;;;;;;3.69;84.04;100041.99;1752170;82;21406;-77
2022/01/05 01:44:36;;;;;;;14.47;7.78;;;;;;;3.70;84.10;100038.05;1752133;82;21160;-77
2022/01/05 01:47:03;;;;;;;11.65;7.05;;;;;;;3.72;84.04;100031.05;1752139;82;20897;-76
2022/01/05 01:49:31;;;;;;;13.00;6.87;;;;;;;3.73;84.04;100030.16;1752592;82;21382;-77
2022/01/05 01:52:00;;;;;;;8.98;6.75;;;;;;;3.74;84.01;100022.76;1752207;82;20936;-78
2022/01/05 01:54:28;;;;;;;13.60;6.60;;;;;;;3.74;84.07;100011.55;1752716;82;20881;-79
2022/01/05 01:56:55;;;;;;;10.40;7.85;;;;;;;3.76;84.08;100012.33;1752291;81;21082;-77
2022/01/05 01:59:22;;;;;;;8.48;7.03;;;;;;;3.77;84.09;100002.33;1752494;82;20904;-78
2022/01/05 02:01:49;;;;;;;11.18;8.38;;;;;;;3.80;84.08;99997.04;1752477;82;21410;-77
2022/01/05 02:04:16;;;;;;;7.87;6.75;;;;;;;3.81;84.02;99991.39;1752342;82;20933;-78
2022/01/05 02:06:43;;;;;;;13.25;6.80;;;;;;;3.82;83.95;99985.28;1752355;82;20999;-77
2022/01/05 02:09:10;;;;;;;8.65;6.42;;;;;;;3.81;83.92;99974.07;1752658;82;21071;-77
2022/01/05 02:11:38;;;;;;;10.82;7.22;;;;;;;3.81;83.89;99972.77;1752397;82;20882;-76
2022/01/05 02:14:06;;;;;;;10.93;6.62;;;;;;;3.82;83.81;99974.45;1752532;82;20944;-76
2022/01/05 02:16:35;;;;;;;13.13;7.17;;;;;;;3.82;83.83;99975.74;1752288;82;21015;-76
2022/01/05 02:19:02;;;;;;;13.08;7.92;;;;;;;3.83;83.79;99958.45;1752596;82;21439;-75
2022/01/05 02:21:34;;;;;;;13.53;8.18;;;;;;;3.82;83.80;99959.34;1752215;82;21116;-77
2022/01/05 02:24:01;;;;;;;13.28;7.20;;;;;;;3.81;83.83;99963.70;1752238;82;20865;-76
2022/01/05 02:26:28;;;;;;;9.78;6.85;;;;;;;3.82;83.85;99956.75;1752270;82;20880;-77
2022/01/05 02:28:55;;;;;;;12.98;7.30;;;;;;;3.83;83.88;99959.75;1752359;82;21005;-78
2022/01/05 02:31:22;;;;;;;13.80;7.62;;;;;;;3.83;83.91;99954.56;1752394;82;21389;-75
2022/01/05 02:33:49;;;;;;;14.93;7.12;;;;;;;3.84;83.92;99953.64;1752801;82;21123;-77
2022/01/05 02:36:19;;;;;;;9.70;7.25;;;;;;;3.83;83.93;99948.08;1752610;82;20988;-76
2022/01/05 02:38:48;;;;;;;9.15;6.75;;;;;;;3.83;83.92;99942.89;1754153;82;20932;-79
2022/01/05 02:41:15;;;;;;;8.78;6.55;;;;;;;3.84;83.98;99932.89;1753095;82;21453;-76
2022/01/05 02:43:43;;;;;;;9.63;6.70;;;;;;;3.84;83.96;99919.93;1752800;82;20857;-77
2022/01/05 02:46:14;;;;;;;9.95;5.95;;;;;;;3.84;83.98;99912.98;1752418;82;20865;-76
2022/01/05 02:48:41;;;;;;;13.20;6.80;;;;;;;3.85;83.96;99909.95;1752516;82;20925;-77
2022/01/05 02:51:09;;;;;;;9.83;6.80;;;;;;;3.83;83.88;99897.05;1752326;82;20897;-77
2022/01/05 02:53:36;;;;;;;6.65;4.97;;;;;;;3.83;83.88;99894.45;1727305;82;21386;-78
2022/01/05 02:56:03;;;;;;;8.98;5.95;;;;;;;3.83;83.86;99897.05;1752429;82;20940;-79
2022/01/05 02:58:30;;;;;;;8.03;5.47;;;;;;;3.84;83.84;99890.10;1752434;82;21376;-76
2022/01/05 03:00:57;;;;;;;7.80;5.75;;;;;;;3.83;83.78;99888.44;1752219;82;21336;-78
2022/01/05 03:03:24;;;;;;;10.45;7.08;;;;;;;3.84;83.79;99886.21;1752267;82;21445;-77
2022/01/05 03:05:51;;;;;;;9.20;7.17;;;;;;;3.85;83.79;99881.43;1752188;82;20909;-78
2022/01/05 03:08:19;;;;;;;8.25;6.03;;;;;;;3.85;83.71;99880.13;1752383;82;20892;-77
2022/01/05 03:10:45;;;;;;;9.38;6.03;;;;;;;3.83;83.66;99875.00;1752290;82;21133;-76
2022/01/05 03:13:13;;;;;;;8.58;5.55;;;;;;;3.82;83.65;99878.48;1752244;82;21023;-78
2022/01/05 03:15:40;;;;;;;10.48;6.67;;;;;;;3.82;83.65;99872.00;1752432;82;21466;-77
2022/01/05 03:18:08;;;;;;;11.00;5.47;;;;;;;3.82;83.67;99871.17;1752356;82;20873;-78
2022/01/05 03:20:35;;;;;;;9.95;6.60;;;;;;;3.82;83.68;99869.88;1752484;82;20940;-79
2022/01/05 03:23:06;;;;;;;8.03;6.17;;;;;;;3.82;83.75;99865.98;1752332;82;21635;-78
2022/01/05 03:25:33;;;;;;;9.28;6.20;;;;;;;3.83;83.75;99854.72;1752188;82;21473;-78
2022/01/05 03:28:00;;;;;;;11.40;6.12;;;;;;;3.84;83.77;99851.20;1752251;82;20896;-76
2022/01/05 03:30:29;;;;;;;9.38;6.17;;;;;;;3.85;83.73;99839.47;1752191;82;20966;-77
2022/01/05 03:35:23;;;;;;;8.13;5.25;;;;;;;3.89;83.73;99838.86;1752164;82;21157;-77
2022/01/05 03:37:50;;;;;;;9.50;5.80;;;;;;;3.89;83.80;99841.02;1752280;82;20979;-80
2022/01/05 03:40:17;;;;;;;5.25;4.35;;;;;;;3.90;83.91;99841.39;1752090;82;21055;-76
2022/01/05 03:42:44;;;;;;;10.63;5.25;;;;;;;3.93;83.98;99840.41;1752186;82;20961;-76
2022/01/05 03:45:11;;;;;;;8.18;5.40;;;;;;;3.94;84.10;99832.57;1752389;82;21560;-75
2022/01/05 03:47:38;;;;;;;7.20;5.03;;;;;;;3.97;84.19;99851.04;1752186;82;21145;-77
2022/01/05 03:50:05;;;;;;;6.47;4.60;;;;;;;3.97;84.23;99857.52;1752274;82;20952;-75
2022/01/05 03:52:33;;;;;;;9.58;5.15;;;;;;;3.99;84.26;99853.11;1752212;82;21043;-74
2022/01/05 03:55:00;;;;;;;5.58;4.55;;;;;;;4.01;84.24;99862.13;1752195;82;20909;-76
2022/01/05 03:57:27;;;;;;;10.10;5.47;;;;;;;4.00;84.30;99867.75;1752321;82;20944;-76
2022/01/05 03:59:54;;;;;;;9.70;6.12;;;;;;;4.02;84.36;99841.75;1752180;82;21165;-76
2022/01/05 04:02:21;;;;;;;8.78;5.75;;;;;;;4.03;84.31;99834.37;1752651;82;21461;-75
2022/01/05 04:04:48;;;;;;;6.00;4.47;;;;;;;4.04;84.35;99824.36;1754151;82;20900;-73
2022/01/05 04:07:16;;;;;;;7.65;5.28;;;;;;;4.05;84.35;99827.36;1752346;82;20945;-76
2022/01/05 04:09:43;;;;;;;7.53;5.03;;;;;;;4.05;84.34;99838.57;1752264;82;21481;-77
2022/01/05 04:12:11;;;;;;;9.15;5.20;;;;;;;4.05;84.33;99824.77;1752089;82;21300;-75
2022/01/05 04:14:38;;;;;;;6.22;5.30;;;;;;;4.05;84.36;99826.06;1752268;82;20921;-76
2022/01/05 04:17:04;;;;;;;11.03;5.70;;;;;;;4.05;84.39;99813.92;1752267;82;20944;-76
2022/01/05 04:19:31;;;;;;;7.72;4.62;;;;;;;4.06;84.36;99800.48;1752069;82;21437;-77
2022/01/05 04:21:58;;;;;;;9.15;5.50;;;;;;;4.08;84.34;99833.70;1752218;82;20857;-75
2022/01/05 04:24:25;;;;;;;8.58;4.87;;;;;;;4.07;84.22;99832.86;1752152;82;21207;-76
2022/01/05 04:26:52;;;;;;;6.25;4.50;;;;;;;4.10;84.05;99813.71;1752255;82;20889;-75
2022/01/05 04:29:19;;;;;;;10.30;6.30;;;;;;;4.10;83.98;99792.49;1752128;82;20924;-76
2022/01/05 04:31:46;;;;;;;10.80;5.78;;;;;;;4.11;83.95;99792.89;1752227;82;21061;-78
2022/01/05 04:34:13;;;;;;;6.85;5.28;;;;;;;4.11;83.92;99794.19;1752269;82;21000;-75
2022/01/05 04:36:39;;;;;;;8.08;4.33;;;;;;;4.13;83.89;99785.02;1752089;82;21525;-77
2022/01/05 04:39:06;;;;;;;7.65;4.78;;;;;;;4.14;83.88;99782.36;1752168;82;21397;-77
2022/01/05 04:41:33;;;;;;;6.42;4.37;;;;;;;4.15;83.87;99767.16;1752148;82;21115;-75
2022/01/05 04:44:00;;;;;;;5.20;3.52;;;;;;;4.17;83.88;99753.29;1752036;82;20936;-77
2022/01/05 04:46:27;;;;;;;5.85;4.35;;;;;;;4.18;83.96;99764.03;1752317;82;20936;-76
2022/01/05 04:48:54;;;;;;;9.25;5.47;;;;;;;4.19;83.95;99752.30;1752487;82;21641;-76
2022/01/05 04:51:21;;;;;;;6.58;3.70;;;;;;;4.21;83.88;99740.09;1751899;82;20893;-77
2022/01/05 04:53:51;;;;;;;7.30;4.05;;;;;;;4.23;83.86;99730.95;1751314;82;20991;-75
2022/01/05 04:56:19;;;;;;;9.08;4.22;;;;;;;4.23;83.82;99717.51;1726901;82;20932;-76
2022/01/05 04:58:46;;;;;;;11.78;4.90;;;;;;;4.24;83.82;99733.91;1752420;82;20952;-75
2022/01/05 05:01:12;;;;;;;4.75;3.37;;;;;;;4.25;83.76;99739.03;1752157;82;22108;-77
2022/01/05 05:03:40;;;;;;;13.08;4.40;;;;;;;4.25;83.71;99729.95;1726805;82;20928;-75
2022/01/05 05:06:07;;;;;;;6.65;3.35;;;;;;;4.27;83.65;99714.28;1752169;82;20990;-75
2022/01/05 05:08:39;;;;;;;5.58;3.30;;;;;;;4.27;83.59;99711.69;1752304;82;21505;-75
2022/01/05 05:11:06;;;;;;;6.35;3.17;;;;;;;4.27;83.59;99698.28;1752247;82;21120;-78
2022/01/05 05:13:32;;;;;;;4.72;3.35;;;;;;;4.29;83.58;99678.29;1752418;82;21055;-76
2022/01/05 05:15:59;;;;;;;6.92;3.55;;;;;;;4.32;83.57;99694.16;1752005;82;21457;-76
2022/01/05 05:18:26;;;;;;;6.95;3.70;;;;;;;4.35;83.49;99689.64;1752431;82;20952;-75
2022/01/05 05:20:53;;;;;;;6.53;3.50;;;;;;;4.36;83.37;99682.72;1752122;82;21503;-76
2022/01/05 05:23:19;;;;;;;4.75;2.90;;;;;;;4.38;83.29;99672.24;1752567;82;21577;-76
2022/01/05 05:25:46;;;;;;;9.43;4.47;;;;;;;4.40;83.15;99701.56;1752114;82;21541;-76
2022/01/05 05:28:13;;;;;;;7.20;3.20;;;;;;;4.40;82.98;99727.52;1752499;82;21493;-77
2022/01/05 05:30:40;;;;;;;8.08;4.45;;;;;;;4.40;82.85;99747.81;1754075;82;20972;-77
2022/01/05 05:33:07;;;;;;;7.72;2.95;;;;;;;4.39;82.79;99746.15;1752544;82;21466;-77
2022/01/05 05:35:34;;;;;;;4.45;4.05;;;;;;;4.39;82.77;99742.72;1752402;82;21015;-78
2022/01/05 05:38:02;;;;;;;5.65;2.83;;;;;;;4.40;82.72;99733.54;1750811;82;21030;-76
2022/01/05 05:40:29;;;;;;;6.83;3.20;;;;;;;4.40;82.69;99733.54;1752210;81;21434;-75
2022/01/05 05:42:56;;;;;;;5.53;2.92;;;;;;;4.42;82.73;99747.28;1752173;82;20983;-77
2022/01/05 05:45:26;;;;;;;4.95;2.90;;;;;;;4.43;82.73;99742.50;1752045;82;21010;-77
2022/01/05 05:47:52;;;;;;;3.70;2.22;;;;;;;4.44;82.68;99735.55;1752686;82;21346;-75
2022/01/05 05:50:19;;;;;;;5.42;2.42;;;;;;;4.44;82.66;99706.98;1752194;82;21128;-79
2022/01/05 05:55:51;;;;;;;6.33;2.55;;;;;;;4.48;82.65;99692.48;1884370;75;22473;-78
2022/01/05 05:58:19;;;;;;;7.28;3.58;;;;;;;4.42;82.71;99681.09;1860646;77;21326;-77
2022/01/05 06:00:46;;;;;;;5.20;3.02;;;;;;;4.42;82.73;99672.48;1860689;77;21115;-76
2022/01/05 06:03:15;;;;;;;4.87;3.10;;;;;;;4.40;82.82;99680.33;1860496;77;20899;-78
2022/01/05 06:05:42;;;;;;;8.20;3.50;;;;;;;4.40;82.97;99689.88;1860897;77;20958;-76
2022/01/05 06:08:09;;;;;;;6.08;3.75;;;;;;;4.41;83.05;99693.70;1860582;76;20868;-76
2022/01/05 06:10:36;;;;;;;4.97;3.50;;;;;;;4.42;83.08;99694.53;1861165;76;21016;-76
2022/01/05 06:13:03;;;;;;;11.68;3.65;;;;;;;4.42;83.08;99694.08;1860707;77;21656;-76
2022/01/05 06:15:32;;;;;;;6.33;3.35;;;;;;;4.43;83.02;99679.36;1860915;76;21465;-77
2022/01/05 06:18:00;;;;;;;6.60;4.83;;;;;;;4.42;82.86;99691.48;1860262;77;20980;-77
2022/01/05 06:20:29;;;;;;;11.20;4.90;;;;;;;4.42;82.73;99690.18;1860627;77;21373;-77
2022/01/05 06:22:56;;;;;;;5.05;3.47;;;;;;;4.44;82.62;99691.41;1860805;76;20915;-79
2022/01/05 06:25:23;;;;;;;5.08;3.83;;;;;;;4.45;82.67;99694.41;1860868;77;21782;-79
2022/01/05 06:27:50;;;;;;;7.03;4.05;;;;;;;4.47;82.65;99704.23;1860617;77;20910;-81
2022/01/05 06:30:19;;;;;;;7.58;3.30;;;;;;;4.49;82.61;99696.77;1861052;77;21373;-78
2022/01/05 06:32:47;;;;;;;5.85;3.67;;;;;;;4.52;82.51;99697.91;1860609;77;20980;-77
2022/01/05 06:35:14;;;;;;;5.75;3.00;;;;;;;4.54;82.39;99714.25;1861050;77;21396;-77
2022/01/05 06:37:41;;;;;;;5.53;3.22;;;;;;;4.57;82.11;99705.46;1860747;77;21124;-77
2022/01/05 06:40:08;;;;;;;4.83;3.40;;;;;;;4.59;81.84;99729.59;1860842;76;20923;-76
2022/01/05 06:42:35;;;;;;;5.12;3.10;;;;;;;4.60;81.70;99732.56;1860722;77;20868;-76
2022/01/05 06:45:03;;;;;;;6.20;3.17;;;;;;;4.63;81.51;99736.78;1860387;77;20959;-78
2022/01/05 06:47:34;;;;;;;6.03;3.40;;;;;;;4.61;81.41;99737.32;1860502;77;20886;-78
2022/01/05 06:50:01;;;;;;;6.45;3.02;;;;;;;4.61;81.37;99742.05;1860386;77;21060;-80
2022/01/05 06:52:28;;;;;;;9.43;3.70;;;;;;;4.64;81.27;99751.44;1860581;77;20864;-77
2022/01/05 06:54:54;;;;;;;8.53;3.33;;;;;;;4.65;81.25;99758.33;1860498;76;20970;-78
2022/01/05 06:57:21;;;;;;;3.30;2.40;;;;;;;4.66;81.08;99754.34;1860701;76;20876;-77
2022/01/05 06:59:48;;;;;;;5.75;2.98;;;;;;;4.68;80.84;99759.46;1860558;76;21380;-78
2022/01/05 07:02:15;;;;;;;3.85;2.75;;;;;;;4.67;80.56;99764.26;1860566;76;21143;-78
2022/01/05 07:04:42;;;;;;;5.33;3.15;;;;;;;4.65;80.41;99754.44;1860704;77;20856;-78
2022/01/05 07:07:10;;;;;;;5.30;3.85;;;;;;;4.64;80.31;99738.45;1860062;76;20894;-78
2022/01/05 07:09:39;;;;;;;4.45;2.98;;;;;;;4.60;80.26;99740.81;1860034;77;20884;-77
2022/01/05 07:12:07;;;;;;;6.05;2.65;;;;;;;4.58;80.30;99738.31;1860301;77;20891;-78
2022/01/05 07:14:34;;;;;;;4.22;2.52;;;;;;;4.57;80.36;99738.75;1859985;77;21781;-79
2022/01/05 07:17:01;;;;;;;8.45;3.45;;;;;;;4.56;80.41;99735.78;1860191;77;20871;-78
2022/01/05 07:19:28;;;;;;;8.08;2.72;;;;;;;4.57;80.41;99736.62;1860028;76;20903;-75
2022/01/05 07:21:55;;;;;;;5.08;3.52;;;;;;;4.57;80.40;99742.64;1860187;76;21508;-76
2022/01/05 07:24:22;;;;;;;6.95;3.65;;;;;;;4.59;80.40;99736.09;1859996;77;20863;-79
2022/01/05 07:26:48;;;;;;;7.60;2.92;;;;;;;4.60;80.33;99724.77;1860262;76;21055;-78
2022/01/05 07:29:16;;;;;;;3.60;2.50;;;;;;;4.62;80.31;99719.05;1859820;76;21428;-79
2022/01/05 07:31:43;;;;;;;5.50;3.77;;;;;;;4.63;80.37;99707.76;1860248;77;20923;-77
2022/01/05 07:34:10;;;;;;;5.08;2.83;;;;;;;4.64;80.40;99710.72;1860039;77;21511;-77
2022/01/05 07:36:37;;;;;;;10.10;4.37;;;;;;;4.65;80.38;99712.88;1860028;76;20832;-75
2022/01/05 07:39:06;;;;;;;4.85;2.77;;;;;;;4.67;80.43;99705.83;1860008;77;20954;-76
2022/01/05 07:41:34;;;;;;;8.43;3.60;;;;;;;4.68;80.44;99694.54;1860425;77;20963;-78
2022/01/05 07:44:04;;;;;;;6.65;3.08;;;;;;;4.70;80.50;99708.29;1860237;77;21013;-79
2022/01/05 07:46:31;;;;;;;6.70;4.03;;;;;;;4.70;80.50;99697.44;1860050;77;20914;-76
2022/01/05 07:49:02;;;;;;;6.70;3.60;;;;;;;4.71;80.47;99721.20;1860051;76;20860;-77
2022/01/05 07:51:29;;;;;;;8.48;3.42;;;;;;;4.73;80.42;99708.12;1860253;77;21801;-78
2022/01/05 07:53:56;;;;;;;4.17;3.47;;;;;;;4.75;80.30;99725.77;1859760;77;20974;-77
2022/01/05 07:56:23;;;;;;;5.40;2.75;;;;;;;4.76;80.16;99724.88;1849137;77;21323;-78
2022/01/05 07:58:50;;;;;;;8.00;2.40;;;;;;;4.74;80.11;99716.31;1849190;77;20921;-76
2022/01/05 08:01:20;;;;;;;4.25;2.33;;;;;;;4.74;80.12;99725.41;1849514;77;21287;-78
2022/01/05 08:03:47;;;;;;;7.55;3.58;;;;;;;4.72;80.13;99718.98;1849215;77;21135;-78
2022/01/05 08:06:14;;;;;;;5.65;3.00;;;;;;;4.70;80.24;99707.83;1849504;77;20941;-76
2022/01/05 08:08:42;;;;;;;6.22;4.37;;;;;;;4.71;80.38;99717.31;1848813;77;21403;-79
2022/01/05 08:11:11;;;;;;;8.23;4.05;;;;;;;4.71;80.44;99712.55;1849128;77;21556;-78
2022/01/05 08:13:38;;;;;;;8.10;3.12;;;;;;;4.70;80.56;99714.31;1849280;76;20889;-78
2022/01/05 08:16:05;;;;;;;7.17;3.77;;;;;;;4.71;80.51;99691.34;1849494;77;21773;-81
2022/01/05 08:18:32;;;;;;;5.60;3.33;;;;;;;4.71;80.62;99697.83;1849084;77;20901;-77
2022/01/05 08:20:59;;;;;;;4.62;2.92;;;;;;;4.71;80.69;99696.53;1849517;77;20830;-77
2022/01/05 08:23:26;;;;;;;5.72;3.50;;;;;;;4.72;80.81;99686.98;1849181;77;20913;-78
2022/01/05 08:25:53;;;;;;;8.15;3.72;;;;;;;4.72;80.93;99686.98;1849488;77;20936;-75
2022/01/05 08:28:20;;;;;;;5.47;3.02;;;;;;;4.73;81.03;99676.95;1849292;77;21099;-78
2022/01/05 08:30:47;;;;;;;4.08;2.95;;;;;;;4.74;81.14;99669.09;1849487;77;20861;-78
2022/01/05 08:33:15;;;;;;;6.47;3.30;;;;;;;4.77;81.27;99667.63;1849262;77;20957;-75
2022/01/05 08:35:42;;;;;;;8.85;2.80;;;;;;;4.81;81.35;99663.59;1849696;76;20952;-78
2022/01/05 08:38:11;;;;;;;11.43;3.90;;;;;;;4.82;81.45;99671.28;1851469;77;20834;-76
2022/01/05 08:40:38;;;;;;;12.23;4.75;;;;;;;4.85;81.42;99672.91;1852455;77;21462;-76
2022/01/05 08:43:06;;;;;;;9.55;4.00;;;;;;;4.87;81.51;99679.70;1852623;77;21415;-76
2022/01/05 08:45:34;;;;;;;8.35;3.87;;;;;;;4.90;81.64;99680.83;1852871;77;20905;-73
2022/01/05 08:48:01;;;;;;;8.90;4.28;;;;;;;4.93;81.74;99685.03;1852881;77;20882;-74
2022/01/05 08:50:30;;;;;;;10.18;4.05;;;;;;;4.94;81.89;99679.77;1853029;77;20869;-73
2022/01/05 08:52:57;;;;;;;11.90;4.75;;;;;;;4.97;81.95;99698.24;1853210;77;21433;-73
2022/01/05 08:55:36;;;;;;;7.37;4.25;;;;;;;4.98;81.87;99690.84;1845491;75;20954;-74
2022/01/05 08:58:03;;;;;;;8.93;4.10;;;;;;;4.99;81.95;99679.05;1838170;77;20946;-75
2022/01/05 09:00:32;;;;;;;8.65;4.65;;;;;;;5.01;82.00;99680.75;1838193;76;20922;-74
2022/01/05 09:03:00;;;;;;;9.80;4.22;;;;;;;5.01;82.15;99673.78;1837960;77;20847;-75
2022/01/05 09:05:27;;;;;;;7.72;5.30;;;;;;;5.04;82.39;99676.67;1838496;77;21495;-75
2022/01/05 09:07:54;;;;;;;9.90;4.87;;;;;;;5.07;82.51;99664.38;1837791;77;20914;-75
2022/01/05 09:10:20;;;;;;;9.65;4.90;;;;;;;5.11;82.56;99667.63;1838268;77;20918;-77
2022/01/05 09:12:47;;;;;;;7.85;3.67;;;;;;;5.14;82.84;99667.02;1837371;77;20871;-77
2022/01/05 09:15:16;;;;;;;8.35;4.40;;;;;;;5.16;82.85;99648.77;1837853;78;20946;-76
2022/01/05 09:17:44;;;;;;;13.08;5.85;;;;;;;5.19;82.95;99635.13;1837928;77;21136;-76
2022/01/05 09:20:11;;;;;;;10.03;4.42;;;;;;;5.23;83.09;99632.38;1838024;77;20886;-77
2022/01/05 09:22:38;;;;;;;7.33;5.03;;;;;;;5.26;83.12;99637.40;1837164;77;20911;-76
2022/01/05 09:25:10;;;;;;;14.15;6.08;;;;;;;5.29;83.21;99627.69;1836724;77;20902;-77
2022/01/05 09:27:38;;;;;;;15.48;6.37;;;;;;;5.30;83.21;99625.45;1834899;77;21385;-76
2022/01/05 09:30:08;;;;;;;9.25;5.47;;;;;;;5.35;83.19;99624.73;1835180;77;21088;-76
2022/01/05 09:32:35;;;;;;;15.55;7.30;;;;;;;5.36;83.20;99621.70;1834744;77;20990;-77
2022/01/05 09:35:02;;;;;;;13.05;6.53;;;;;;;5.36;83.37;99614.73;1835139;77;20923;-76
2022/01/05 09:37:34;;;;;;;16.73;7.30;;;;;;;5.38;83.48;99619.38;1834859;77;20863;-77
2022/01/05 09:42:42;;;;;;;15.72;6.85;;;;;;;5.39;83.59;99626.25;1834818;77;21131;-76
2022/01/05 09:45:20;;;;;;;11.40;6.53;;;;;;;5.41;83.59;99627.47;1834724;77;21325;-77
2022/01/05 09:48:10;;;;;;;17.65;7.83;;;;;;;5.42;83.63;99623.94;1834641;77;20907;-77
2022/01/05 09:50:58;;;;;;;19.90;7.55;;;;;;;5.44;83.90;99605.66;1835002;77;21400;-77
2022/01/05 09:53:25;;;;;;;14.68;5.85;;;;;;;5.45;84.01;99619.88;1834866;77;20954;-76
2022/01/05 09:55:52;;;;;;;13.55;7.80;;;;;;;5.47;84.12;99615.88;1834618;75;21544;-76
2022/01/05 09:58:21;;;;;;;15.30;7.22;;;;;;;5.51;84.02;99616.92;1834660;77;20871;-75
2022/01/05 10:00:50;;;;;;;17.05;7.85;;;;;;;5.54;83.96;99614.17;1835008;77;21028;-76
2022/01/05 10:03:16;;;;;;;17.82;7.97;;;;;;;5.56;83.96;99601.92;1834600;77;21387;-76
2022/01/05 10:05:43;;;;;;;19.45;9.00;;;;;;;5.59;84.01;99601.74;1834864;76;20937;-78
2022/01/05 10:08:11;;;;;;;16.62;7.10;;;;;;;5.61;83.97;99592.09;1834615;77;21480;-74
2022/01/05 10:10:38;;;;;;;14.70;7.40;;;;;;;5.63;83.99;99590.72;1834934;77;20895;-80
2022/01/05 10:13:04;;;;;;;17.62;8.03;;;;;;;5.65;83.99;99590.61;1834571;77;20970;-75
2022/01/05 10:15:31;;;;;;;16.65;7.90;;;;;;;5.65;83.95;99590.17;1834760;77;21413;-78
2022/01/05 10:18:16;;;;;;;15.55;9.28;;;;;;;5.67;84.02;99579.66;1834725;76;20911;-74
2022/01/05 10:21:02;;;;;;;17.40;7.67;;;;;;;5.69;84.03;99583.02;1834945;77;21096;-75
2022/01/05 10:23:45;;;;;;;17.65;8.40;;;;;;;5.69;84.01;99592.12;1834510;77;21376;-75
2022/01/05 10:26:32;;;;;;;15.23;8.33;;;;;;;5.72;84.14;99585.46;1834854;77;20883;-74
2022/01/05 10:29:15;;;;;;;19.57;8.83;;;;;;;5.75;84.14;99603.48;1834470;77;21442;-75
2022/01/05 10:31:43;;;;;;;17.57;8.15;;;;;;;5.77;84.18;99595.97;1834904;77;20914;-75
2022/01/05 10:34:20;;;;;;;22.80;9.90;;;;;;;5.79;84.22;99602.39;1834664;77;21143;-75
2022/01/05 10:36:58;;;;;;;17.12;9.60;;;;;;;5.80;84.30;99595.81;1834805;78;20831;-74
2022/01/05 10:39:35;;;;;;;13.65;8.60;;;;;;;5.81;84.42;99597.47;1834596;77;20919;-75
2022/01/05 10:42:07;;;;;;;15.03;8.80;;;;;;;5.84;84.58;99589.95;1834939;77;20863;-76
2022/01/05 10:44:33;;;;;;;14.53;8.98;;;;;;;5.86;84.63;99597.69;1834791;77;20927;-77
2022/01/05 10:47:01;;;;;;;22.58;9.88;;;;;;;5.87;84.72;99595.00;1834812;77;21558;-75
2022/01/05 10:49:37;;;;;;;20.55;11.48;;;;;;;5.90;84.94;99584.41;1834742;78;20894;-75
2022/01/05 10:52:33;;;;;;;22.95;10.90;;;;;;;5.91;84.99;99567.85;1835034;77;20958;-76
2022/01/05 10:55:17;;;;;;;21.12;10.75;;;;;;;5.96;85.08;99581.49;1833531;75;20875;-74
2022/01/05 10:58:04;;;;;;;21.37;10.60;;;;;;;5.99;85.08;99571.36;1834985;77;20866;-76
2022/01/05 11:00:46;;;;;;;21.07;11.95;;;;;;;6.00;85.12;99577.79;1834891;78;21116;-74
2022/01/05 11:03:35;;;;;;;19.27;10.38;;;;;;;6.04;85.09;99575.00;1762868;80;20996;-74
2022/01/05 11:06:14;;;;;;;22.00;11.63;;;;;;;6.07;85.11;99586.08;1763583;80;20973;-74
2022/01/05 11:08:56;;;;;;;22.30;12.28;;;;;;;6.10;85.12;99601.98;1763265;80;20914;-76
2022/01/05 11:11:44;;;;;;;24.43;11.55;;;;;;;6.12;85.04;99580.13;1763186;80;20966;-76
2022/01/05 11:14:33;;;;;;;20.08;11.53;;;;;;;6.14;85.10;99580.05;1763096;80;21525;-76
2022/01/05 11:17:03;;;;;;;21.60;11.70;;;;;;;6.16;85.23;99571.70;1762955;81;20878;-75
2022/01/05 11:19:33;;;;;;;20.70;12.60;;;;;;;6.19;85.32;99572.33;1762943;80;20827;-75
2022/01/05 11:22:07;;;;;;;23.35;12.75;;;;;;;6.17;85.33;99564.24;1762477;80;20934;-76
2022/01/05 11:24:45;;;;;;;26.52;13.28;;;;;;;6.13;85.39;99560.97;1763117;80;20938;-74
2022/01/05 11:27:15;;;;;;;23.52;13.22;;;;;;;6.12;85.47;99571.02;1763025;81;21151;-74
2022/01/05 11:29:42;;;;;;;22.48;13.30;;;;;;;6.11;85.71;99568.50;1762923;80;20873;-75
2022/01/05 11:32:12;;;;;;;22.87;12.18;;;;;;;6.10;85.91;99573.34;1763063;81;20867;-76
2022/01/05 11:34:40;;;;;;;24.45;14.40;;;;;;;6.09;85.93;99568.61;1762992;80;20890;-74
2022/01/05 11:37:08;;;;;;;20.95;13.35;;;;;;;6.10;86.06;99578.55;1763231;80;21428;-76
2022/01/05 11:39:34;;;;;;;21.65;13.50;;;;;;;6.10;86.14;99579.86;1810013;78;21501;-78
2022/01/05 11:42:07;;;;;;;25.32;13.08;;;;;;;6.11;86.24;99581.52;1834698;76;20902;-76
2022/01/05 11:44:50;;;;;;;22.58;13.60;;;;;;;6.09;86.27;99577.72;1807469;78;20872;-75
2022/01/05 11:47:27;;;;;;;23.07;14.35;;;;;;;6.09;86.36;99571.66;1834732;77;20919;-77
2022/01/05 11:49:56;;;;;;;19.05;13.20;;;;;;;6.09;86.50;99566.01;1835249;77;20890;-76